createdAt,value
2017-06-12T00:00:26.354Z,0
2017-06-12T00:01:26.367Z,0
2017-06-12T00:02:26.325Z,0
2017-06-12T00:03:26.299Z,0
2017-06-12T00:04:26.364Z,0
2017-06-12T00:05:26.373Z,0
2017-06-12T00:06:26.335Z,0
2017-06-12T00:07:26.304Z,0
2017-06-12T00:08:26.361Z,0
2017-06-12T00:09:26.368Z,0
2017-06-12T00:10:26.340Z,0
2017-06-12T00:11:26.340Z,0
2017-06-12T00:12:26.338Z,0
2017-06-12T00:13:26.344Z,0
2017-06-12T00:14:26.343Z,0
2017-06-12T00:15:26.349Z,0
2017-06-12T00:16:26.345Z,0
2017-06-12T00:17:26.350Z,0
2017-06-12T00:18:26.347Z,0
2017-06-12T00:19:26.347Z,0
2017-06-12T00:20:26.362Z,0
2017-06-12T00:21:26.358Z,0
2017-06-12T00:22:26.363Z,0
2017-06-12T00:23:26.364Z,0
2017-06-12T00:24:26.369Z,0
2017-06-12T00:25:26.363Z,0
2017-06-12T00:26:26.364Z,0
2017-06-12T00:27:26.363Z,0
2017-06-12T00:28:26.365Z,0
2017-06-12T00:29:26.367Z,0
2017-06-12T00:30:26.350Z,0
2017-06-12T00:31:26.272Z,0
2017-06-12T00:32:26.347Z,0
2017-06-12T00:33:26.343Z,0
2017-06-12T00:34:26.348Z,0
2017-06-12T00:35:26.353Z,0
2017-06-12T00:36:26.350Z,0
2017-06-12T00:37:26.352Z,0
2017-06-12T00:38:26.354Z,0
2017-06-12T00:39:26.355Z,0
2017-06-12T00:40:26.385Z,0
2017-06-12T00:41:26.301Z,0
2017-06-12T00:42:26.302Z,0
2017-06-12T00:43:26.388Z,0
2017-06-12T00:44:26.394Z,0
2017-06-12T00:45:26.307Z,0
2017-06-12T00:46:26.387Z,0
2017-06-12T00:47:26.389Z,0
2017-06-12T00:48:26.353Z,0
2017-06-12T00:49:26.302Z,0
2017-06-12T00:50:26.419Z,0
2017-06-12T00:51:26.399Z,0
2017-06-12T00:52:26.386Z,0
2017-06-12T00:53:26.439Z,0
2017-06-12T00:54:26.397Z,0
2017-06-12T00:55:26.449Z,0
2017-06-12T00:56:26.310Z,0
2017-06-12T00:57:26.385Z,0
2017-06-12T00:58:26.406Z,0
2017-06-12T00:59:26.312Z,0
2017-06-12T01:00:26.394Z,0
2017-06-12T01:01:26.416Z,0
2017-06-12T01:02:26.382Z,0
2017-06-12T01:03:26.387Z,0
2017-06-12T01:04:26.395Z,0
2017-06-12T01:05:26.395Z,0
2017-06-12T01:06:26.384Z,0
2017-06-12T01:07:26.396Z,0
2017-06-12T01:08:26.399Z,0
2017-06-12T01:09:26.387Z,0
2017-06-12T01:10:26.382Z,0
2017-06-12T01:11:26.405Z,0
2017-06-12T01:12:26.315Z,0
2017-06-12T01:13:26.411Z,0
2017-06-12T01:14:26.392Z,0
2017-06-12T01:15:26.375Z,0
2017-06-12T01:16:26.389Z,0
2017-06-12T01:17:26.404Z,0
2017-06-12T01:18:26.405Z,0
2017-06-12T01:19:26.398Z,0
2017-06-12T01:20:26.434Z,0
2017-06-12T01:21:26.415Z,0
2017-06-12T01:22:26.407Z,0
2017-06-12T01:23:26.328Z,0
2017-06-12T01:24:26.420Z,0
2017-06-12T01:25:26.392Z,0
2017-06-12T01:26:26.409Z,0
2017-06-12T01:27:26.414Z,0
2017-06-12T01:28:26.396Z,0
2017-06-12T01:29:26.411Z,0
2017-06-12T01:30:26.378Z,0
2017-06-12T01:31:26.413Z,0
2017-06-12T01:32:26.378Z,0
2017-06-12T01:33:26.325Z,0
2017-06-12T01:34:26.333Z,0
2017-06-12T01:35:26.377Z,0
2017-06-12T01:36:26.413Z,0
2017-06-12T01:37:26.400Z,0
2017-06-12T01:38:26.440Z,0
2017-06-12T01:39:26.422Z,0
2017-06-12T01:40:26.337Z,0
2017-06-12T01:41:26.400Z,0
2017-06-12T01:42:26.405Z,0
2017-06-12T01:43:26.403Z,0
2017-06-12T01:44:26.405Z,0
2017-06-12T01:45:26.405Z,0
2017-06-12T01:46:26.404Z,0
2017-06-12T01:47:26.403Z,0
2017-06-12T01:48:26.420Z,0
2017-06-12T01:49:26.410Z,0
2017-06-12T01:50:26.410Z,0
2017-06-12T01:51:26.424Z,0
2017-06-12T01:52:26.426Z,0
2017-06-12T01:53:26.343Z,0
2017-06-12T01:54:26.430Z,0
2017-06-12T01:55:26.425Z,0
2017-06-12T01:56:26.434Z,0
2017-06-12T01:57:26.422Z,0
2017-06-12T01:58:26.341Z,0
2017-06-12T01:59:26.436Z,0
2017-06-12T02:00:26.429Z,0
2017-06-12T02:01:26.430Z,0
2017-06-12T02:02:26.430Z,0
2017-06-12T02:03:26.427Z,0
2017-06-12T02:04:26.339Z,0
2017-06-12T02:05:26.433Z,0
2017-06-12T02:06:26.355Z,0
2017-06-12T02:07:26.438Z,0
2017-06-12T02:08:26.344Z,0
2017-06-12T02:09:26.432Z,0
2017-06-12T02:10:26.434Z,0
2017-06-12T02:11:26.439Z,0
2017-06-12T02:12:26.349Z,0
2017-06-12T02:13:26.347Z,0
2017-06-12T02:14:26.350Z,0
2017-06-12T02:15:26.348Z,0
2017-06-12T02:16:26.348Z,0
2017-06-12T02:17:26.348Z,0
2017-06-12T02:18:26.349Z,0
2017-06-12T02:19:26.386Z,0
2017-06-12T02:20:26.347Z,0
2017-06-12T02:21:26.332Z,0
2017-06-12T02:22:26.349Z,0
2017-06-12T02:23:26.348Z,0
2017-06-12T02:24:26.350Z,0
2017-06-12T02:25:26.350Z,0
2017-06-12T02:26:26.345Z,0
2017-06-12T02:27:26.451Z,0
2017-06-12T02:28:26.349Z,0
2017-06-12T02:29:26.350Z,0
2017-06-12T02:30:26.350Z,0
2017-06-12T02:31:26.359Z,0
2017-06-12T02:32:26.438Z,0
2017-06-12T02:33:26.453Z,0
2017-06-12T02:34:26.441Z,0
2017-06-12T02:35:26.456Z,0
2017-06-12T02:36:26.459Z,0
2017-06-12T02:37:26.368Z,0
2017-06-12T02:38:26.444Z,0
2017-06-12T02:39:26.360Z,0
2017-06-12T02:40:26.369Z,0
2017-06-12T02:41:26.431Z,0
2017-06-12T02:42:26.423Z,0
2017-06-12T02:43:26.424Z,0
2017-06-12T02:44:26.422Z,0
2017-06-12T02:45:26.425Z,0
2017-06-12T02:46:26.425Z,0
2017-06-12T02:47:26.425Z,0
2017-06-12T02:48:26.426Z,0
2017-06-12T02:49:26.426Z,0
2017-06-12T02:50:26.429Z,0
2017-06-12T02:51:26.460Z,0
2017-06-12T02:52:26.459Z,0
2017-06-12T02:53:26.380Z,0
2017-06-12T02:54:26.458Z,0
2017-06-12T02:55:26.442Z,0
2017-06-12T02:56:26.373Z,0
2017-06-12T02:57:26.376Z,0
2017-06-12T02:58:26.425Z,0
2017-06-12T02:59:26.464Z,0
2017-06-12T03:00:26.465Z,0
2017-06-12T03:01:26.453Z,0
2017-06-12T03:02:26.428Z,0
2017-06-12T03:03:26.452Z,0
2017-06-12T03:04:26.384Z,0
2017-06-12T03:05:26.470Z,0
2017-06-12T03:06:26.467Z,0
2017-06-12T03:07:26.394Z,0
2017-06-12T03:08:26.467Z,0
2017-06-12T03:09:26.389Z,0
2017-06-12T03:10:26.467Z,0
2017-06-12T03:11:26.451Z,0
2017-06-12T03:12:26.450Z,0
2017-06-12T03:13:26.458Z,0
2017-06-12T03:14:26.453Z,0
2017-06-12T03:15:26.453Z,0
2017-06-12T03:16:26.532Z,0
2017-06-12T03:17:26.457Z,0
2017-06-12T03:18:26.452Z,0
2017-06-12T03:19:26.407Z,0
2017-06-12T03:20:26.392Z,0
2017-06-12T03:21:26.476Z,0
2017-06-12T03:22:26.469Z,0
2017-06-12T03:23:26.481Z,0
2017-06-12T03:24:26.438Z,0
2017-06-12T03:25:26.393Z,0
2017-06-12T03:26:26.387Z,0
2017-06-12T03:27:26.391Z,0
2017-06-12T03:28:26.457Z,0
2017-06-12T03:29:26.397Z,0
2017-06-12T03:30:26.457Z,0
2017-06-12T03:31:26.447Z,0
2017-06-12T03:32:26.446Z,0
2017-06-12T03:33:26.445Z,0
2017-06-12T03:34:26.444Z,0
2017-06-12T03:35:26.446Z,0
2017-06-12T03:36:26.549Z,0
2017-06-12T03:37:26.550Z,0
2017-06-12T03:38:26.448Z,0
2017-06-12T03:39:26.479Z,0
2017-06-12T03:40:26.450Z,0
2017-06-12T03:41:26.549Z,0
2017-06-12T03:42:26.465Z,0
2017-06-12T03:43:26.463Z,0
2017-06-12T03:44:26.405Z,0
2017-06-12T03:45:26.402Z,0
2017-06-12T03:46:26.466Z,0
2017-06-12T03:47:26.467Z,0
2017-06-12T03:48:26.466Z,0
2017-06-12T03:49:26.468Z,0
2017-06-12T03:50:26.467Z,0
2017-06-12T03:51:26.391Z,0
2017-06-12T03:52:26.397Z,0
2017-06-12T03:53:26.375Z,0
2017-06-12T03:54:26.443Z,0
2017-06-12T03:55:26.388Z,0
2017-06-12T03:56:26.446Z,0
2017-06-12T03:57:26.475Z,0
2017-06-12T03:58:26.383Z,17
2017-06-12T03:59:26.396Z,21
2017-06-12T04:00:26.438Z,22
2017-06-12T04:01:26.411Z,19
2017-06-12T04:02:26.504Z,18
2017-06-12T04:03:26.495Z,18
2017-06-12T04:04:26.474Z,17
2017-06-12T04:05:26.502Z,15
2017-06-12T04:06:26.499Z,15
2017-06-12T04:07:26.413Z,15
2017-06-12T04:08:26.499Z,19
2017-06-12T04:09:26.412Z,30
2017-06-12T04:10:26.420Z,40
2017-06-12T04:11:26.485Z,35
2017-06-12T04:12:26.509Z,35
2017-06-12T04:13:26.408Z,38
2017-06-12T04:14:26.393Z,33
2017-06-12T04:15:26.464Z,20
2017-06-12T04:16:26.395Z,18
2017-06-12T04:17:26.406Z,21
2017-06-12T04:18:26.399Z,21
2017-06-12T04:19:26.457Z,21
2017-06-12T04:20:26.442Z,21
2017-06-12T04:21:26.513Z,21
2017-06-12T04:22:26.509Z,22
2017-06-12T04:23:26.426Z,26
2017-06-12T04:24:26.466Z,33
2017-06-12T04:25:26.512Z,36
2017-06-12T04:26:26.416Z,28
2017-06-12T04:27:26.426Z,29
2017-06-12T04:28:26.420Z,29
2017-06-12T04:29:26.483Z,33
2017-06-12T04:30:26.507Z,32
2017-06-12T04:31:26.491Z,30
2017-06-12T04:32:26.491Z,27
2017-06-12T04:33:26.491Z,27
2017-06-12T04:34:26.492Z,27
2017-06-12T04:35:26.491Z,26
2017-06-12T04:36:26.435Z,28
2017-06-12T04:37:26.490Z,28
2017-06-12T04:38:26.492Z,28
2017-06-12T04:39:26.497Z,29
2017-06-12T04:40:26.493Z,31
2017-06-12T04:41:26.477Z,34
2017-06-12T04:42:26.511Z,38
2017-06-12T04:43:26.520Z,39
2017-06-12T04:44:26.430Z,38
2017-06-12T04:45:26.516Z,50
2017-06-12T04:46:26.519Z,42
2017-06-12T04:47:26.518Z,33
2017-06-12T04:48:26.484Z,32
2017-06-12T04:49:26.522Z,31
2017-06-12T04:50:26.475Z,35
2017-06-12T04:51:26.435Z,38
2017-06-12T04:52:26.424Z,38
2017-06-12T04:53:26.459Z,39
2017-06-12T04:54:26.515Z,40
2017-06-12T04:55:26.406Z,40
2017-06-12T04:56:26.386Z,43
2017-06-12T04:57:26.429Z,51
2017-06-12T04:58:26.419Z,67
2017-06-12T04:59:26.501Z,83
2017-06-12T05:00:26.449Z,99
2017-06-12T05:01:26.510Z,104
2017-06-12T05:02:26.517Z,100
2017-06-12T05:03:26.510Z,106
2017-06-12T05:04:26.514Z,117
2017-06-12T05:05:26.508Z,121
2017-06-12T05:06:26.521Z,129
2017-06-12T05:07:26.517Z,133
2017-06-12T05:08:26.515Z,116
2017-06-12T05:09:26.516Z,100
2017-06-12T05:10:26.527Z,91
2017-06-12T05:11:26.514Z,81
2017-06-12T05:12:26.492Z,64
2017-06-12T05:13:26.528Z,54
2017-06-12T05:14:26.537Z,46
2017-06-12T05:15:26.531Z,49
2017-06-12T05:16:26.534Z,64
2017-06-12T05:17:26.448Z,83
2017-06-12T05:18:26.549Z,79
2017-06-12T05:19:26.532Z,65
2017-06-12T05:20:26.449Z,47
2017-06-12T05:21:26.450Z,42
2017-06-12T05:22:26.518Z,46
2017-06-12T05:23:26.523Z,49
2017-06-12T05:24:26.549Z,47
2017-06-12T05:25:26.521Z,45
2017-06-12T05:26:26.522Z,43
2017-06-12T05:27:26.521Z,43
2017-06-12T05:28:26.524Z,44
2017-06-12T05:29:26.607Z,45
2017-06-12T05:30:26.521Z,46
2017-06-12T05:31:26.522Z,46
2017-06-12T05:32:26.524Z,46
2017-06-12T05:33:26.525Z,42
2017-06-12T05:34:26.522Z,42
2017-06-12T05:35:26.529Z,45
2017-06-12T05:36:26.522Z,45
2017-06-12T05:37:26.525Z,46
2017-06-12T05:38:26.530Z,47
2017-06-12T05:39:26.519Z,47
2017-06-12T05:40:26.527Z,45
2017-06-12T05:41:26.526Z,47
2017-06-12T05:42:26.507Z,53
2017-06-12T05:43:26.463Z,54
2017-06-12T05:44:26.546Z,53
2017-06-12T05:45:26.549Z,53
2017-06-12T05:46:26.548Z,57
2017-06-12T05:47:26.471Z,60
2017-06-12T05:48:26.511Z,61
2017-06-12T05:49:26.556Z,61
2017-06-12T05:50:26.465Z,61
2017-06-12T05:51:26.559Z,67
2017-06-12T05:52:26.548Z,71
2017-06-12T05:53:26.656Z,79
2017-06-12T05:54:26.611Z,87
2017-06-12T05:55:26.555Z,95
2017-06-12T05:56:26.544Z,101
2017-06-12T05:57:26.556Z,85
2017-06-12T05:58:26.533Z,86
2017-06-12T05:59:26.551Z,105
2017-06-12T06:00:26.557Z,118
2017-06-12T06:01:26.561Z,95
2017-06-12T06:02:26.540Z,97
2017-06-12T06:03:26.441Z,113
2017-06-12T06:04:26.455Z,106
2017-06-12T06:05:26.492Z,78
2017-06-12T06:06:26.442Z,65
2017-06-12T06:07:26.457Z,58
2017-06-12T06:08:26.496Z,61
2017-06-12T06:09:26.449Z,65
2017-06-12T06:10:26.497Z,62
2017-06-12T06:11:26.500Z,60
2017-06-12T06:12:26.535Z,65
2017-06-12T06:13:26.533Z,70
2017-06-12T06:14:26.537Z,72
2017-06-12T06:15:26.535Z,74
2017-06-12T06:16:26.535Z,72
2017-06-12T06:17:26.533Z,80
2017-06-12T06:18:26.532Z,93
2017-06-12T06:19:26.634Z,107
2017-06-12T06:20:26.539Z,115
2017-06-12T06:21:26.538Z,184
2017-06-12T06:22:26.568Z,83
2017-06-12T06:23:26.487Z,84
2017-06-12T06:24:26.568Z,100
2017-06-12T06:25:26.526Z,91
2017-06-12T06:26:26.537Z,89
2017-06-12T06:27:26.566Z,85
2017-06-12T06:28:26.513Z,79
2017-06-12T06:29:26.573Z,96
2017-06-12T06:30:26.517Z,93
2017-06-12T06:31:26.581Z,91
2017-06-12T06:32:26.578Z,93
2017-06-12T06:33:26.575Z,231
2017-06-12T06:34:26.509Z,263
2017-06-12T06:35:26.518Z,283
2017-06-12T06:36:26.582Z,280
2017-06-12T06:37:26.578Z,325
2017-06-12T06:38:26.630Z,338
2017-06-12T06:39:26.571Z,329
2017-06-12T06:40:26.570Z,342
2017-06-12T06:41:26.571Z,326
2017-06-12T06:42:26.549Z,328
2017-06-12T06:43:26.549Z,348
2017-06-12T06:44:26.550Z,394
2017-06-12T06:45:26.553Z,394
2017-06-12T06:46:26.553Z,402
2017-06-12T06:47:26.558Z,390
2017-06-12T06:48:26.554Z,393
2017-06-12T06:49:26.549Z,405
2017-06-12T06:50:26.550Z,413
2017-06-12T06:51:26.553Z,413
2017-06-12T06:52:26.566Z,453
2017-06-12T06:53:26.562Z,452
2017-06-12T06:54:26.497Z,500
2017-06-12T06:55:26.504Z,486
2017-06-12T06:56:26.505Z,517
2017-06-12T06:57:26.595Z,516
2017-06-12T06:58:26.510Z,526
2017-06-12T06:59:26.594Z,538
2017-06-12T07:00:26.589Z,571
2017-06-12T07:01:26.587Z,582
2017-06-12T07:02:26.562Z,590
2017-06-12T07:03:26.661Z,577
2017-06-12T07:04:26.560Z,564
2017-06-12T07:05:26.562Z,527
2017-06-12T07:06:26.562Z,597
2017-06-12T07:07:26.563Z,599
2017-06-12T07:08:26.561Z,595
2017-06-12T07:09:26.563Z,654
2017-06-12T07:10:26.568Z,654
2017-06-12T07:11:26.564Z,663
2017-06-12T07:12:26.563Z,661
2017-06-12T07:13:26.567Z,672
2017-06-12T07:14:26.564Z,675
2017-06-12T07:15:26.564Z,676
2017-06-12T07:16:26.564Z,679
2017-06-12T07:17:26.568Z,673
2017-06-12T07:18:26.563Z,677
2017-06-12T07:19:26.568Z,691
2017-06-12T07:20:26.571Z,687
2017-06-12T07:21:26.572Z,733
2017-06-12T07:22:26.583Z,749
2017-06-12T07:23:26.601Z,746
2017-06-12T07:24:26.527Z,763
2017-06-12T07:25:26.584Z,763
2017-06-12T07:26:26.589Z,763
2017-06-12T07:27:26.583Z,763
2017-06-12T07:28:26.585Z,779
2017-06-12T07:29:26.584Z,790
2017-06-12T07:30:26.586Z,791
2017-06-12T07:31:26.587Z,802
2017-06-12T07:32:26.574Z,785
2017-06-12T07:33:26.576Z,784
2017-06-12T07:34:26.580Z,818
2017-06-12T07:35:26.577Z,808
2017-06-12T07:36:26.579Z,796
2017-06-12T07:37:26.576Z,805
2017-06-12T07:38:26.582Z,811
2017-06-12T07:39:26.676Z,820
2017-06-12T07:40:26.683Z,860
2017-06-12T07:41:26.679Z,224
2017-06-12T07:42:26.594Z,823
2017-06-12T07:43:26.595Z,884
2017-06-12T07:44:26.597Z,198
2017-06-12T07:45:26.596Z,446
2017-06-12T07:46:26.596Z,857
2017-06-12T07:47:26.597Z,844
2017-06-12T07:48:26.598Z,888
2017-06-12T07:49:26.630Z,416
2017-06-12T07:50:26.597Z,587
2017-06-12T07:51:26.600Z,184
2017-06-12T07:52:26.526Z,870
2017-06-12T07:53:26.608Z,886
2017-06-12T07:54:26.621Z,873
2017-06-12T07:55:26.539Z,892
2017-06-12T07:56:26.619Z,873
2017-06-12T07:57:26.625Z,902
2017-06-12T07:58:26.623Z,904
2017-06-12T07:59:26.614Z,895
2017-06-12T08:00:26.601Z,882
2017-06-12T08:01:26.533Z,898
2017-06-12T08:02:26.583Z,926
2017-06-12T08:03:26.624Z,951
2017-06-12T08:04:26.631Z,937
2017-06-12T08:05:26.547Z,949
2017-06-12T08:06:26.625Z,945
2017-06-12T08:07:26.627Z,1017
2017-06-12T08:08:26.622Z,957
2017-06-12T08:09:26.542Z,636
2017-06-12T08:10:26.627Z,376
2017-06-12T08:11:26.632Z,1165
2017-06-12T08:12:26.608Z,1127
2017-06-12T08:13:26.610Z,363
2017-06-12T08:14:26.610Z,317
2017-06-12T08:15:26.614Z,264
2017-06-12T08:16:26.612Z,215
2017-06-12T08:17:26.615Z,205
2017-06-12T08:18:26.614Z,398
2017-06-12T08:19:26.610Z,935
2017-06-12T08:20:26.615Z,919
2017-06-12T08:21:26.616Z,368
2017-06-12T08:22:26.636Z,560
2017-06-12T08:23:26.597Z,1168
2017-06-12T08:24:26.557Z,365
2017-06-12T08:25:26.631Z,421
2017-06-12T08:26:26.618Z,1117
2017-06-12T08:27:26.555Z,1270
2017-06-12T08:28:26.557Z,501
2017-06-12T08:29:26.614Z,374
2017-06-12T08:30:26.557Z,331
2017-06-12T08:31:26.553Z,338
2017-06-12T08:32:26.637Z,392
2017-06-12T08:33:26.606Z,442
2017-06-12T08:34:26.608Z,402
2017-06-12T08:35:26.612Z,403
2017-06-12T08:36:26.612Z,409
2017-06-12T08:37:26.609Z,424
2017-06-12T08:38:26.612Z,413
2017-06-12T08:39:26.615Z,400
2017-06-12T08:40:26.618Z,392
2017-06-12T08:41:26.618Z,427
2017-06-12T08:42:26.616Z,458
2017-06-12T08:43:26.642Z,467
2017-06-12T08:44:26.557Z,1159
2017-06-12T08:45:26.561Z,439
2017-06-12T08:46:26.636Z,676
2017-06-12T08:47:26.648Z,458
2017-06-12T08:48:26.646Z,430
2017-06-12T08:49:26.648Z,995
2017-06-12T08:50:26.648Z,1158
2017-06-12T08:51:26.625Z,1125
2017-06-12T08:52:26.562Z,507
2017-06-12T08:53:26.656Z,873
2017-06-12T08:54:26.565Z,1145
2017-06-12T08:55:26.607Z,447
2017-06-12T08:56:26.570Z,855
2017-06-12T08:57:26.566Z,380
2017-06-12T08:58:26.653Z,970
2017-06-12T08:59:26.570Z,1182
2017-06-12T09:00:26.654Z,1118
2017-06-12T09:01:26.660Z,290
2017-06-12T09:02:26.576Z,249
2017-06-12T09:03:26.637Z,238
2017-06-12T09:04:26.656Z,229
2017-06-12T09:05:26.657Z,284
2017-06-12T09:06:26.661Z,1187
2017-06-12T09:07:26.579Z,1179
2017-06-12T09:08:26.666Z,1160
2017-06-12T09:09:26.662Z,1179
2017-06-12T09:10:26.578Z,805
2017-06-12T09:11:26.596Z,575
2017-06-12T09:12:26.581Z,514
2017-06-12T09:13:26.629Z,522
2017-06-12T09:14:26.633Z,499
2017-06-12T09:15:26.631Z,422
2017-06-12T09:16:26.633Z,464
2017-06-12T09:17:26.629Z,371
2017-06-12T09:18:26.639Z,358
2017-06-12T09:19:26.634Z,327
2017-06-12T09:20:26.635Z,278
2017-06-12T09:21:26.635Z,231
2017-06-12T09:22:26.637Z,212
2017-06-12T09:23:26.635Z,223
2017-06-12T09:24:26.636Z,1195
2017-06-12T09:25:26.640Z,1268
2017-06-12T09:26:26.640Z,1324
2017-06-12T09:27:26.639Z,441
2017-06-12T09:28:26.638Z,496
2017-06-12T09:29:26.639Z,479
2017-06-12T09:30:26.642Z,581
2017-06-12T09:31:26.640Z,568
2017-06-12T09:32:26.639Z,456
2017-06-12T09:33:26.632Z,416
2017-06-12T09:34:26.664Z,398
2017-06-12T09:35:26.673Z,351
2017-06-12T09:36:26.632Z,341
2017-06-12T09:37:26.650Z,352
2017-06-12T09:38:26.635Z,375
2017-06-12T09:39:26.647Z,399
2017-06-12T09:40:26.670Z,393
2017-06-12T09:41:26.602Z,389
2017-06-12T09:42:26.590Z,407
2017-06-12T09:43:26.678Z,1206
2017-06-12T09:44:26.658Z,526
2017-06-12T09:45:26.672Z,616
2017-06-12T09:46:26.688Z,970
2017-06-12T09:47:26.684Z,687
2017-06-12T09:48:26.642Z,1235
2017-06-12T09:49:26.683Z,418
2017-06-12T09:50:26.624Z,1193
2017-06-12T09:51:26.598Z,1183
2017-06-12T09:52:26.677Z,1188
2017-06-12T09:53:26.668Z,1244
2017-06-12T09:54:26.663Z,1221
2017-06-12T09:55:26.664Z,1227
2017-06-12T09:56:26.665Z,1278
2017-06-12T09:57:26.598Z,431
2017-06-12T09:58:26.667Z,397
2017-06-12T10:00:26.668Z,467
2017-06-12T10:01:26.594Z,431
2017-06-12T10:02:26.671Z,424
2017-06-12T10:03:26.634Z,1324
2017-06-12T10:04:26.630Z,715
2017-06-12T10:05:26.569Z,371
2017-06-12T10:06:26.591Z,660
2017-06-12T10:07:26.645Z,1264
2017-06-12T10:08:26.632Z,1256
2017-06-12T10:09:26.644Z,1199
2017-06-12T10:10:26.597Z,1178
2017-06-12T10:11:26.604Z,1157
2017-06-12T10:12:26.646Z,1154
2017-06-12T10:13:26.702Z,1145
2017-06-12T10:14:26.675Z,1112
2017-06-12T10:15:26.698Z,1129
2017-06-12T10:16:26.691Z,1147
2017-06-12T10:17:26.612Z,1199
2017-06-12T10:18:26.641Z,444
2017-06-12T10:19:26.745Z,826
2017-06-12T10:20:26.704Z,465
2017-06-12T10:21:26.700Z,534
2017-06-12T10:22:26.702Z,789
2017-06-12T10:23:26.642Z,1237
2017-06-12T10:24:26.639Z,1307
2017-06-12T10:25:26.697Z,1336
2017-06-12T10:26:26.596Z,987
2017-06-12T10:27:26.560Z,1343
2017-06-12T10:28:26.562Z,1361
2017-06-12T10:29:26.564Z,466
2017-06-12T10:30:26.570Z,662
2017-06-12T10:31:26.584Z,1339
2017-06-12T10:32:26.627Z,354
2017-06-12T10:33:26.626Z,1299
2017-06-12T10:34:26.707Z,1230
2017-06-12T10:35:26.671Z,1270
2017-06-12T10:36:26.714Z,1314
2017-06-12T10:37:26.686Z,399
2017-06-12T10:38:26.714Z,1311
2017-06-12T10:39:26.710Z,1281
2017-06-12T10:40:26.620Z,1269
2017-06-12T10:41:26.719Z,514
2017-06-12T10:42:26.710Z,1284
2017-06-12T10:43:26.626Z,1314
2017-06-12T10:44:26.716Z,1299
2017-06-12T10:45:26.670Z,1224
2017-06-12T10:46:26.710Z,568
2017-06-12T10:47:26.713Z,551
2017-06-12T10:48:26.713Z,1287
2017-06-12T10:49:26.650Z,881
2017-06-12T10:50:26.630Z,402
2017-06-12T10:51:26.743Z,1263
2017-06-12T10:52:26.674Z,1235
2017-06-12T10:53:26.683Z,340
2017-06-12T10:54:26.685Z,749
2017-06-12T10:55:26.687Z,1174
2017-06-12T10:56:26.687Z,865
2017-06-12T10:57:26.685Z,410
2017-06-12T10:58:26.687Z,386
2017-06-12T10:59:26.691Z,1247
2017-06-12T11:00:26.689Z,1152
2017-06-12T11:01:26.689Z,1160
2017-06-12T11:02:26.690Z,1170
2017-06-12T11:03:26.705Z,1140
2017-06-12T11:04:26.707Z,1149
2017-06-12T11:05:26.703Z,1138
2017-06-12T11:06:26.705Z,1159
2017-06-12T11:07:26.708Z,1163
2017-06-12T11:08:26.709Z,1163
2017-06-12T11:09:26.707Z,1229
2017-06-12T11:10:26.708Z,952
2017-06-12T11:11:26.711Z,430
2017-06-12T11:12:26.707Z,458
2017-06-12T11:13:26.737Z,452
2017-06-12T11:14:26.645Z,1212
2017-06-12T11:15:26.648Z,1248
2017-06-12T11:16:26.726Z,1306
2017-06-12T11:17:26.728Z,1346
2017-06-12T11:18:26.731Z,1385
2017-06-12T11:19:26.645Z,1405
2017-06-12T11:20:26.692Z,1097
2017-06-12T11:21:26.740Z,1341
2017-06-12T11:22:26.692Z,1343
2017-06-12T11:23:26.716Z,712
2017-06-12T11:24:26.716Z,1307
2017-06-12T11:25:26.715Z,1372
2017-06-12T11:26:26.714Z,1330
2017-06-12T11:27:26.716Z,927
2017-06-12T11:28:26.717Z,542
2017-06-12T11:29:26.714Z,1401
2017-06-12T11:30:26.719Z,1348
2017-06-12T11:31:26.694Z,1343
2017-06-12T11:32:26.718Z,1280
2017-06-12T11:33:26.721Z,342
2017-06-12T11:34:26.626Z,1205
2017-06-12T11:35:26.692Z,1220
2017-06-12T11:36:26.623Z,1210
2017-06-12T11:37:26.620Z,1217
2017-06-12T11:38:26.629Z,1234
2017-06-12T11:39:26.727Z,1257
2017-06-12T11:40:26.726Z,509
2017-06-12T11:41:26.702Z,572
2017-06-12T11:42:26.628Z,1424
2017-06-12T11:43:26.793Z,648
2017-06-12T11:44:26.745Z,553
2017-06-12T11:45:26.746Z,659
2017-06-12T11:46:26.663Z,522
2017-06-12T11:47:26.739Z,1426
2017-06-12T11:48:26.687Z,1397
2017-06-12T11:49:26.654Z,1129
2017-06-12T11:50:26.654Z,1106
2017-06-12T11:51:26.750Z,1360
2017-06-12T11:52:26.745Z,1192
2017-06-12T11:53:26.729Z,654
2017-06-12T11:54:26.813Z,522
2017-06-12T11:55:26.729Z,540
2017-06-12T11:56:26.728Z,1218
2017-06-12T11:57:26.730Z,1420
2017-06-12T11:58:26.735Z,1397
2017-06-12T11:59:26.704Z,1330
2017-06-12T12:00:26.739Z,1338
2017-06-12T12:01:26.734Z,1342
2017-06-12T12:02:26.736Z,701
2017-06-12T12:03:26.727Z,1073
2017-06-12T12:04:26.726Z,1212
2017-06-12T12:05:26.726Z,1250
2017-06-12T12:06:26.725Z,954
2017-06-12T12:07:26.728Z,344
2017-06-12T12:08:26.726Z,1214
2017-06-12T12:09:26.729Z,1208
2017-06-12T12:10:26.729Z,1099
2017-06-12T12:11:26.729Z,1150
2017-06-12T12:12:26.727Z,1192
2017-06-12T12:13:26.767Z,1190
2017-06-12T12:14:26.752Z,1194
2017-06-12T12:15:26.766Z,1048
2017-06-12T12:16:26.680Z,1180
2017-06-12T12:17:26.673Z,1143
2017-06-12T12:18:26.683Z,1144
2017-06-12T12:19:26.761Z,1166
2017-06-12T12:20:26.680Z,1147
2017-06-12T12:21:26.755Z,1160
2017-06-12T12:22:26.762Z,1178
2017-06-12T12:23:26.764Z,1203
2017-06-12T12:24:26.679Z,1223
2017-06-12T12:25:26.766Z,1211
2017-06-12T12:26:26.682Z,1218
2017-06-12T12:27:26.768Z,1201
2017-06-12T12:28:26.874Z,1295
2017-06-12T12:29:26.767Z,1252
2017-06-12T12:30:26.796Z,1296
2017-06-12T12:31:26.683Z,1092
2017-06-12T12:32:26.728Z,1301
2017-06-12T12:33:26.682Z,416
2017-06-12T12:34:26.766Z,405
2017-06-12T12:35:26.689Z,479
2017-06-12T12:36:26.680Z,588
2017-06-12T12:37:26.773Z,486
2017-06-12T12:38:26.764Z,472
2017-06-12T12:39:26.773Z,1001
2017-06-12T12:40:26.695Z,1050
2017-06-12T12:41:26.771Z,681
2017-06-12T12:42:26.774Z,1417
2017-06-12T12:43:26.695Z,1385
2017-06-12T12:44:26.782Z,1346
2017-06-12T12:45:26.791Z,1266
2017-06-12T12:46:26.695Z,477
2017-06-12T12:47:26.776Z,396
2017-06-12T12:48:26.697Z,363
2017-06-12T12:49:26.690Z,363
2017-06-12T12:50:26.743Z,386
2017-06-12T12:51:26.779Z,442
2017-06-12T12:52:26.743Z,810
2017-06-12T12:53:26.764Z,687
2017-06-12T12:54:26.761Z,567
2017-06-12T12:55:26.765Z,1253
2017-06-12T12:56:26.765Z,1303
2017-06-12T12:57:26.770Z,1308
2017-06-12T12:58:26.765Z,1267
2017-06-12T12:59:26.766Z,907
2017-06-12T13:00:26.764Z,572
2017-06-12T13:01:26.767Z,723
2017-06-12T13:02:26.794Z,720
2017-06-12T13:03:26.696Z,734
2017-06-12T13:04:26.702Z,1463
2017-06-12T13:05:26.787Z,798
2017-06-12T13:06:26.708Z,721
2017-06-12T13:07:26.746Z,677
2017-06-12T13:08:26.695Z,695
2017-06-12T13:09:26.786Z,1411
2017-06-12T13:10:26.787Z,1296
2017-06-12T13:11:26.701Z,886
2017-06-12T13:12:26.710Z,611
2017-06-12T13:13:26.799Z,597
2017-06-12T13:14:26.759Z,646
2017-06-12T13:15:26.761Z,705
2017-06-12T13:16:26.762Z,821
2017-06-12T13:17:26.763Z,741
2017-06-12T13:18:26.767Z,934
2017-06-12T13:19:26.764Z,628
2017-06-12T13:20:26.763Z,585
2017-06-12T13:21:26.768Z,682
2017-06-12T13:22:26.764Z,734
2017-06-12T13:23:26.767Z,645
2017-06-12T13:24:26.797Z,1090
2017-06-12T13:25:26.801Z,1076
2017-06-12T13:26:26.715Z,684
2017-06-12T13:27:26.778Z,657
2017-06-12T13:28:26.713Z,827
2017-06-12T13:29:26.716Z,670
2017-06-12T13:30:26.760Z,841
2017-06-12T13:31:26.802Z,1256
2017-06-12T13:32:26.780Z,1123
2017-06-12T13:33:26.722Z,698
2017-06-12T13:34:26.808Z,631
2017-06-12T13:35:26.760Z,1436
2017-06-12T13:36:26.807Z,769
2017-06-12T13:37:26.805Z,946
2017-06-12T13:38:26.800Z,1012
2017-06-12T13:39:26.781Z,1412
2017-06-12T13:40:26.783Z,786
2017-06-12T13:41:26.813Z,983
2017-06-12T13:42:26.809Z,682
2017-06-12T13:43:26.723Z,796
2017-06-12T13:44:26.722Z,1373
2017-06-12T13:45:26.816Z,1072
2017-06-12T13:46:26.806Z,770
2017-06-12T13:47:26.818Z,1214
2017-06-12T13:48:26.803Z,878
2017-06-12T13:49:26.730Z,694
2017-06-12T13:50:26.812Z,717
2017-06-12T13:51:26.789Z,562
2017-06-12T13:52:26.737Z,544
2017-06-12T13:53:26.810Z,914
2017-06-12T13:54:26.783Z,587
2017-06-12T13:55:26.782Z,560
2017-06-12T13:56:26.782Z,549
2017-06-12T13:57:26.784Z,553
2017-06-12T13:58:26.781Z,680
2017-06-12T13:59:26.887Z,564
2017-06-12T14:00:26.784Z,597
2017-06-12T14:01:26.785Z,504
2017-06-12T14:02:26.785Z,508